sensor_id;sensor_type;location;lat;lon;timestamp;P1;durP1;ratioP1;P2;durP2;ratioP2
6017;SDS011;3037;51.068;13.780;2023-04-15T00:00:01;4.73;;;3.23;;
6017;SDS011;3037;51.068;13.780;2023-04-15T00:02:27;3.37;;;3.27;;
6017;SDS011;3037;51.068;13.780;2023-04-15T00:04:53;3.73;;;3.53;;
6017;SDS011;3037;51.068;13.780;2023-04-15T00:07:19;3.77;;;3.57;;
6017;SDS011;3037;51.068;13.780;2023-04-15T00:09:45;3.37;;;3.23;;
6017;SDS011;3037;51.068;13.780;2023-04-15T00:12:10;3.57;;;3.37;;
6017;SDS011;3037;51.068;13.780;2023-04-15T00:14:36;4.03;;;3.50;;
6017;SDS011;3037;51.068;13.780;2023-04-15T00:17:02;3.13;;;3.03;;
6017;SDS011;3037;51.068;13.780;2023-04-15T00:19:29;3.73;;;3.53;;
6017;SDS011;3037;51.068;13.780;2023-04-15T00:21:54;3.30;;;3.20;;
6017;SDS011;3037;51.068;13.780;2023-04-15T00:24:21;3.50;;;3.30;;
6017;SDS011;3037;51.068;13.780;2023-04-15T00:26:47;4.07;;;3.77;;
6017;SDS011;3037;51.068;13.780;2023-04-15T00:29:13;3.63;;;3.53;;
6017;SDS011;3037;51.068;13.780;2023-04-15T00:31:39;3.30;;;3.10;;
6017;SDS011;3037;51.068;13.780;2023-04-15T00:34:06;3.63;;;3.33;;
6017;SDS011;3037;51.068;13.780;2023-04-15T00:36:31;3.80;;;3.60;;
6017;SDS011;3037;51.068;13.780;2023-04-15T00:38:58;3.10;;;3.00;;
6017;SDS011;3037;51.068;13.780;2023-04-15T00:41:24;3.90;;;3.70;;
6017;SDS011;3037;51.068;13.780;2023-04-15T00:43:50;3.50;;;3.40;;
6017;SDS011;3037;51.068;13.780;2023-04-15T00:46:16;6.20;;;3.97;;
6017;SDS011;3037;51.068;13.780;2023-04-15T00:48:44;3.50;;;3.30;;
6017;SDS011;3037;51.068;13.780;2023-04-15T00:51:11;3.43;;;3.23;;
6017;SDS011;3037;51.068;13.780;2023-04-15T00:53:37;3.50;;;3.20;;
6017;SDS011;3037;51.068;13.780;2023-04-15T00:56:03;3.20;;;3.10;;
6017;SDS011;3037;51.068;13.780;2023-04-15T00:58:29;3.30;;;3.20;;
6017;SDS011;3037;51.068;13.780;2023-04-15T01:00:55;3.50;;;3.30;;
6017;SDS011;3037;51.068;13.780;2023-04-15T01:03:22;3.10;;;3.00;;
6017;SDS011;3037;51.068;13.780;2023-04-15T01:05:47;4.30;;;3.40;;
6017;SDS011;3037;51.068;13.780;2023-04-15T01:08:14;2.90;;;2.80;;
6017;SDS011;3037;51.068;13.780;2023-04-15T01:10:39;3.83;;;2.90;;
6017;SDS011;3037;51.068;13.780;2023-04-15T01:13:06;3.63;;;3.43;;
6017;SDS011;3037;51.068;13.780;2023-04-15T01:15:31;3.00;;;2.90;;
6017;SDS011;3037;51.068;13.780;2023-04-15T01:18:00;3.47;;;3.27;;
6017;SDS011;3037;51.068;13.780;2023-04-15T01:20:27;3.80;;;3.60;;
6017;SDS011;3037;51.068;13.780;2023-04-15T01:22:53;3.73;;;3.43;;
6017;SDS011;3037;51.068;13.780;2023-04-15T01:25:27;3.33;;;3.23;;
6017;SDS011;3037;51.068;13.780;2023-04-15T01:27:57;5.00;;;3.60;;
6017;SDS011;3037;51.068;13.780;2023-04-15T01:30:23;3.90;;;3.70;;
6017;SDS011;3037;51.068;13.780;2023-04-15T01:32:50;3.97;;;3.77;;
6017;SDS011;3037;51.068;13.780;2023-04-15T01:35:16;3.80;;;3.60;;
6017;SDS011;3037;51.068;13.780;2023-04-15T01:37:42;3.50;;;3.37;;
6017;SDS011;3037;51.068;13.780;2023-04-15T01:40:07;3.70;;;3.50;;
6017;SDS011;3037;51.068;13.780;2023-04-15T01:42:34;3.13;;;3.03;;
6017;SDS011;3037;51.068;13.780;2023-04-15T01:45:00;7.93;;;4.10;;
6017;SDS011;3037;51.068;13.780;2023-04-15T01:47:26;4.83;;;4.47;;
6017;SDS011;3037;51.068;13.780;2023-04-15T01:49:52;3.67;;;3.47;;
6017;SDS011;3037;51.068;13.780;2023-04-15T01:52:17;2.90;;;2.80;;
6017;SDS011;3037;51.068;13.780;2023-04-15T01:54:43;3.70;;;3.50;;
6017;SDS011;3037;51.068;13.780;2023-04-15T01:57:09;4.90;;;4.03;;
6017;SDS011;3037;51.068;13.780;2023-04-15T01:59:34;6.07;;;4.90;;
6017;SDS011;3037;51.068;13.780;2023-04-15T02:02:00;9.77;;;6.00;;
6017;SDS011;3037;51.068;13.780;2023-04-15T02:04:25;6.40;;;5.00;;
6017;SDS011;3037;51.068;13.780;2023-04-15T02:06:52;4.53;;;4.23;;
6017;SDS011;3037;51.068;13.780;2023-04-15T02:09:17;5.30;;;4.80;;
6017;SDS011;3037;51.068;13.780;2023-04-15T02:11:43;5.50;;;4.83;;
6017;SDS011;3037;51.068;13.780;2023-04-15T02:14:09;6.30;;;5.23;;
6017;SDS011;3037;51.068;13.780;2023-04-15T02:16:35;6.30;;;5.70;;
6017;SDS011;3037;51.068;13.780;2023-04-15T02:19:00;4.23;;;3.93;;
6017;SDS011;3037;51.068;13.780;2023-04-15T02:21:26;4.10;;;3.77;;
6017;SDS011;3037;51.068;13.780;2023-04-15T02:23:51;3.60;;;3.40;;
6017;SDS011;3037;51.068;13.780;2023-04-15T02:26:20;3.53;;;3.23;;
6017;SDS011;3037;51.068;13.780;2023-04-15T02:28:46;4.40;;;4.00;;
6017;SDS011;3037;51.068;13.780;2023-04-15T02:31:12;3.13;;;3.00;;
6017;SDS011;3037;51.068;13.780;2023-04-15T02:33:38;3.13;;;2.93;;
6017;SDS011;3037;51.068;13.780;2023-04-15T02:36:03;3.30;;;3.20;;
6017;SDS011;3037;51.068;13.780;2023-04-15T02:38:29;3.50;;;3.20;;
6017;SDS011;3037;51.068;13.780;2023-04-15T02:40:55;3.93;;;3.77;;
6017;SDS011;3037;51.068;13.780;2023-04-15T02:43:21;3.47;;;3.37;;
6017;SDS011;3037;51.068;13.780;2023-04-15T02:45:47;3.60;;;3.40;;
6017;SDS011;3037;51.068;13.780;2023-04-15T02:48:12;4.10;;;3.90;;
6017;SDS011;3037;51.068;13.780;2023-04-15T02:50:38;4.27;;;3.87;;
6017;SDS011;3037;51.068;13.780;2023-04-15T02:53:04;3.97;;;3.67;;
6017;SDS011;3037;51.068;13.780;2023-04-15T02:55:30;3.63;;;3.53;;
6017;SDS011;3037;51.068;13.780;2023-04-15T02:57:56;4.13;;;3.93;;
6017;SDS011;3037;51.068;13.780;2023-04-15T03:00:24;3.70;;;3.43;;
6017;SDS011;3037;51.068;13.780;2023-04-15T03:02:50;3.43;;;3.03;;
6017;SDS011;3037;51.068;13.780;2023-04-15T03:05:20;4.10;;;3.90;;
6017;SDS011;3037;51.068;13.780;2023-04-15T03:07:48;4.07;;;3.77;;
6017;SDS011;3037;51.068;13.780;2023-04-15T03:10:14;3.40;;;3.27;;
6017;SDS011;3037;51.068;13.780;2023-04-15T03:12:39;5.20;;;4.77;;
6017;SDS011;3037;51.068;13.780;2023-04-15T03:15:05;3.20;;;3.10;;
6017;SDS011;3037;51.068;13.780;2023-04-15T03:17:32;3.70;;;3.50;;
6017;SDS011;3037;51.068;13.780;2023-04-15T03:19:57;4.40;;;4.00;;
6017;SDS011;3037;51.068;13.780;2023-04-15T03:22:23;4.13;;;3.87;;
6017;SDS011;3037;51.068;13.780;2023-04-15T03:24:49;3.70;;;3.50;;
6017;SDS011;3037;51.068;13.780;2023-04-15T03:27:14;4.13;;;3.90;;
6017;SDS011;3037;51.068;13.780;2023-04-15T03:29:40;3.90;;;3.70;;
6017;SDS011;3037;51.068;13.780;2023-04-15T03:32:05;3.13;;;2.93;;
6017;SDS011;3037;51.068;13.780;2023-04-15T03:34:31;3.97;;;3.70;;
6017;SDS011;3037;51.068;13.780;2023-04-15T03:36:56;4.13;;;3.83;;
6017;SDS011;3037;51.068;13.780;2023-04-15T03:39:22;4.07;;;3.77;;
6017;SDS011;3037;51.068;13.780;2023-04-15T03:41:47;3.57;;;3.47;;
6017;SDS011;3037;51.068;13.780;2023-04-15T03:44:13;4.30;;;4.00;;
6017;SDS011;3037;51.068;13.780;2023-04-15T03:46:38;4.17;;;3.97;;
6017;SDS011;3037;51.068;13.780;2023-04-15T03:49:07;3.50;;;3.37;;
6017;SDS011;3037;51.068;13.780;2023-04-15T03:51:33;4.37;;;4.17;;
6017;SDS011;3037;51.068;13.780;2023-04-15T03:53:59;3.83;;;3.63;;
6017;SDS011;3037;51.068;13.780;2023-04-15T03:56:26;4.67;;;4.27;;
6017;SDS011;3037;51.068;13.780;2023-04-15T03:58:51;4.30;;;3.90;;
6017;SDS011;3037;51.068;13.780;2023-04-15T04:01:17;3.43;;;3.33;;
6017;SDS011;3037;51.068;13.780;2023-04-15T04:03:43;4.40;;;4.20;;
6017;SDS011;3037;51.068;13.780;2023-04-15T04:06:08;4.80;;;4.40;;
6017;SDS011;3037;51.068;13.780;2023-04-15T04:08:36;4.40;;;4.10;;
6017;SDS011;3037;51.068;13.780;2023-04-15T04:11:02;3.43;;;3.33;;
6017;SDS011;3037;51.068;13.780;2023-04-15T04:13:27;4.50;;;4.30;;
6017;SDS011;3037;51.068;13.780;2023-04-15T04:15:53;4.67;;;4.20;;
6017;SDS011;3037;51.068;13.780;2023-04-15T04:18:18;3.90;;;3.70;;
6017;SDS011;3037;51.068;13.780;2023-04-15T04:20:44;4.83;;;4.53;;
6017;SDS011;3037;51.068;13.780;2023-04-15T04:23:10;4.70;;;4.40;;
6017;SDS011;3037;51.068;13.780;2023-04-15T04:25:35;4.17;;;3.97;;
6017;SDS011;3037;51.068;13.780;2023-04-15T04:28:01;4.93;;;4.70;;
6017;SDS011;3037;51.068;13.780;2023-04-15T04:30:27;4.90;;;4.60;;
6017;SDS011;3037;51.068;13.780;2023-04-15T04:32:53;4.20;;;3.80;;
6017;SDS011;3037;51.068;13.780;2023-04-15T04:35:18;4.60;;;4.20;;
6017;SDS011;3037;51.068;13.780;2023-04-15T04:37:44;4.37;;;4.17;;
6017;SDS011;3037;51.068;13.780;2023-04-15T04:40:10;4.30;;;4.10;;
6017;SDS011;3037;51.068;13.780;2023-04-15T04:42:36;4.73;;;4.33;;
6017;SDS011;3037;51.068;13.780;2023-04-15T04:45:01;4.70;;;4.40;;
6017;SDS011;3037;51.068;13.780;2023-04-15T04:47:27;5.20;;;4.80;;
6017;SDS011;3037;51.068;13.780;2023-04-15T04:49:52;5.13;;;4.83;;
6017;SDS011;3037;51.068;13.780;2023-04-15T04:52:18;4.63;;;4.33;;
6017;SDS011;3037;51.068;13.780;2023-04-15T04:54:43;5.20;;;4.90;;
6017;SDS011;3037;51.068;13.780;2023-04-15T04:57:09;5.60;;;5.20;;
6017;SDS011;3037;51.068;13.780;2023-04-15T04:59:37;4.77;;;4.47;;
6017;SDS011;3037;51.068;13.780;2023-04-15T05:02:03;4.60;;;4.30;;
6017;SDS011;3037;51.068;13.780;2023-04-15T05:04:28;5.20;;;4.70;;
6017;SDS011;3037;51.068;13.780;2023-04-15T05:06:55;5.20;;;4.90;;
6017;SDS011;3037;51.068;13.780;2023-04-15T05:09:21;5.70;;;5.10;;
6017;SDS011;3037;51.068;13.780;2023-04-15T05:11:47;4.87;;;4.57;;
6017;SDS011;3037;51.068;13.780;2023-04-15T05:14:12;4.70;;;4.40;;
6017;SDS011;3037;51.068;13.780;2023-04-15T05:16:38;4.63;;;4.33;;
6017;SDS011;3037;51.068;13.780;2023-04-15T05:19:03;4.97;;;4.57;;
6017;SDS011;3037;51.068;13.780;2023-04-15T05:21:29;5.07;;;4.67;;
6017;SDS011;3037;51.068;13.780;2023-04-15T05:23:55;5.03;;;4.63;;
6017;SDS011;3037;51.068;13.780;2023-04-15T05:26:21;5.53;;;4.57;;
6017;SDS011;3037;51.068;13.780;2023-04-15T05:28:48;5.70;;;5.20;;
6017;SDS011;3037;51.068;13.780;2023-04-15T05:31:14;4.50;;;4.30;;
6017;SDS011;3037;51.068;13.780;2023-04-15T05:33:40;6.40;;;5.77;;
6017;SDS011;3037;51.068;13.780;2023-04-15T05:36:05;5.40;;;5.00;;
6017;SDS011;3037;51.068;13.780;2023-04-15T05:38:31;5.73;;;5.33;;
6017;SDS011;3037;51.068;13.780;2023-04-15T05:40:56;6.00;;;5.57;;
6017;SDS011;3037;51.068;13.780;2023-04-15T05:43:22;6.80;;;6.30;;
6017;SDS011;3037;51.068;13.780;2023-04-15T05:45:48;8.53;;;7.20;;
6017;SDS011;3037;51.068;13.780;2023-04-15T05:48:13;6.50;;;6.00;;
6017;SDS011;3037;51.068;13.780;2023-04-15T05:50:42;5.20;;;4.83;;
6017;SDS011;3037;51.068;13.780;2023-04-15T05:53:07;6.40;;;5.83;;
6017;SDS011;3037;51.068;13.780;2023-04-15T05:55:33;13.17;;;10.27;;
6017;SDS011;3037;51.068;13.780;2023-04-15T05:57:59;6.63;;;6.00;;
6017;SDS011;3037;51.068;13.780;2023-04-15T06:00:24;5.47;;;5.07;;
6017;SDS011;3037;51.068;13.780;2023-04-15T06:02:50;5.10;;;4.70;;
6017;SDS011;3037;51.068;13.780;2023-04-15T06:05:15;5.40;;;5.03;;
6017;SDS011;3037;51.068;13.780;2023-04-15T06:07:42;7.90;;;7.10;;
6017;SDS011;3037;51.068;13.780;2023-04-15T06:10:08;5.90;;;5.40;;
6017;SDS011;3037;51.068;13.780;2023-04-15T06:12:33;4.37;;;4.07;;
6017;SDS011;3037;51.068;13.780;2023-04-15T06:14:59;4.20;;;3.90;;
6017;SDS011;3037;51.068;13.780;2023-04-15T06:17:25;2.90;;;2.80;;
6017;SDS011;3037;51.068;13.780;2023-04-15T06:19:50;2.70;;;2.50;;
6017;SDS011;3037;51.068;13.780;2023-04-15T06:22:20;2.60;;;2.40;;
6017;SDS011;3037;51.068;13.780;2023-04-15T06:24:46;2.10;;;2.10;;
6017;SDS011;3037;51.068;13.780;2023-04-15T06:27:14;2.20;;;2.00;;
6017;SDS011;3037;51.068;13.780;2023-04-15T06:29:40;2.23;;;2.13;;
6017;SDS011;3037;51.068;13.780;2023-04-15T06:32:05;3.90;;;3.60;;
6017;SDS011;3037;51.068;13.780;2023-04-15T06:34:31;2.20;;;2.10;;
6017;SDS011;3037;51.068;13.780;2023-04-15T06:36:56;2.33;;;2.23;;
6017;SDS011;3037;51.068;13.780;2023-04-15T06:39:22;1.87;;;1.87;;
6017;SDS011;3037;51.068;13.780;2023-04-15T06:41:47;1.47;;;1.47;;
6017;SDS011;3037;51.068;13.780;2023-04-15T06:44:13;4.27;;;3.87;;
6017;SDS011;3037;51.068;13.780;2023-04-15T06:46:38;1.83;;;1.73;;
6017;SDS011;3037;51.068;13.780;2023-04-15T06:49:04;2.20;;;2.10;;
6017;SDS011;3037;51.068;13.780;2023-04-15T06:51:30;1.70;;;1.70;;
6017;SDS011;3037;51.068;13.780;2023-04-15T06:53:56;2.33;;;2.23;;
6017;SDS011;3037;51.068;13.780;2023-04-15T06:56:22;1.87;;;1.67;;
6017;SDS011;3037;51.068;13.780;2023-04-15T06:58:47;1.50;;;1.50;;
6017;SDS011;3037;51.068;13.780;2023-04-15T07:01:13;1.60;;;1.50;;
6017;SDS011;3037;51.068;13.780;2023-04-15T07:03:38;1.17;;;1.17;;
6017;SDS011;3037;51.068;13.780;2023-04-15T07:06:05;2.00;;;1.90;;
6017;SDS011;3037;51.068;13.780;2023-04-15T07:08:32;1.10;;;1.10;;
6017;SDS011;3037;51.068;13.780;2023-04-15T07:10:58;1.10;;;1.10;;
6017;SDS011;3037;51.068;13.780;2023-04-15T07:13:24;1.20;;;1.20;;
6017;SDS011;3037;51.068;13.780;2023-04-15T07:15:50;2.00;;;1.90;;
6017;SDS011;3037;51.068;13.780;2023-04-15T07:18:15;2.50;;;1.57;;
6017;SDS011;3037;51.068;13.780;2023-04-15T07:20:41;1.20;;;1.20;;
6017;SDS011;3037;51.068;13.780;2023-04-15T07:23:07;0.97;;;0.97;;
6017;SDS011;3037;51.068;13.780;2023-04-15T07:25:33;2.40;;;1.30;;
6017;SDS011;3037;51.068;13.780;2023-04-15T07:27:58;0.90;;;0.90;;
6017;SDS011;3037;51.068;13.780;2023-04-15T07:30:24;1.00;;;1.00;;
6017;SDS011;3037;51.068;13.780;2023-04-15T07:32:49;1.03;;;0.93;;
6017;SDS011;3037;51.068;13.780;2023-04-15T07:35:15;1.33;;;1.30;;
6017;SDS011;3037;51.068;13.780;2023-04-15T07:37:40;1.07;;;1.07;;
6017;SDS011;3037;51.068;13.780;2023-04-15T07:40:07;1.60;;;1.50;;
6017;SDS011;3037;51.068;13.780;2023-04-15T07:42:33;1.73;;;1.50;;
6017;SDS011;3037;51.068;13.780;2023-04-15T07:44:59;1.90;;;1.80;;
6017;SDS011;3037;51.068;13.780;2023-04-15T07:47:26;1.90;;;1.80;;
6017;SDS011;3037;51.068;13.780;2023-04-15T07:49:51;1.70;;;1.70;;
6017;SDS011;3037;51.068;13.780;2023-04-15T07:52:17;1.47;;;1.47;;
6017;SDS011;3037;51.068;13.780;2023-04-15T07:54:42;1.20;;;1.20;;
6017;SDS011;3037;51.068;13.780;2023-04-15T07:57:08;1.40;;;1.33;;
6017;SDS011;3037;51.068;13.780;2023-04-15T07:59:34;1.47;;;1.47;;
6017;SDS011;3037;51.068;13.780;2023-04-15T08:02:00;1.80;;;1.47;;
6017;SDS011;3037;51.068;13.780;2023-04-15T08:04:25;2.27;;;2.10;;
6017;SDS011;3037;51.068;13.780;2023-04-15T08:06:51;0.80;;;0.80;;
6017;SDS011;3037;51.068;13.780;2023-04-15T08:09:16;1.30;;;1.20;;
6017;SDS011;3037;51.068;13.780;2023-04-15T08:11:42;0.73;;;0.73;;
6017;SDS011;3037;51.068;13.780;2023-04-15T08:14:07;3.13;;;1.73;;
6017;SDS011;3037;51.068;13.780;2023-04-15T08:16:33;0.97;;;0.97;;
6017;SDS011;3037;51.068;13.780;2023-04-15T08:18:58;1.87;;;1.07;;
6017;SDS011;3037;51.068;13.780;2023-04-15T08:21:24;2.20;;;2.10;;
6017;SDS011;3037;51.068;13.780;2023-04-15T08:23:50;1.33;;;1.33;;
6017;SDS011;3037;51.068;13.780;2023-04-15T08:26:17;4.07;;;1.10;;
6017;SDS011;3037;51.068;13.780;2023-04-15T08:28:43;1.73;;;0.90;;
6017;SDS011;3037;51.068;13.780;2023-04-15T08:31:11;0.80;;;0.80;;
6017;SDS011;3037;51.068;13.780;2023-04-15T08:33:38;1.17;;;1.17;;
6017;SDS011;3037;51.068;13.780;2023-04-15T08:36:03;1.20;;;1.20;;
6017;SDS011;3037;51.068;13.780;2023-04-15T08:38:30;1.53;;;1.43;;
6017;SDS011;3037;51.068;13.780;2023-04-15T08:40:55;1.53;;;1.43;;
6017;SDS011;3037;51.068;13.780;2023-04-15T08:43:26;1.20;;;1.20;;
6017;SDS011;3037;51.068;13.780;2023-04-15T08:45:54;3.17;;;1.80;;
6017;SDS011;3037;51.068;13.780;2023-04-15T08:48:20;1.63;;;1.13;;
6017;SDS011;3037;51.068;13.780;2023-04-15T08:50:46;2.30;;;1.43;;
6017;SDS011;3037;51.068;13.780;2023-04-15T08:53:12;1.13;;;1.13;;
6017;SDS011;3037;51.068;13.780;2023-04-15T08:55:41;1.93;;;1.83;;
6017;SDS011;3037;51.068;13.780;2023-04-15T08:58:13;2.90;;;2.80;;
6017;SDS011;3037;51.068;13.780;2023-04-15T09:00:40;3.30;;;3.00;;
6017;SDS011;3037;51.068;13.780;2023-04-15T09:03:06;3.80;;;3.50;;
6017;SDS011;3037;51.068;13.780;2023-04-15T09:05:33;3.43;;;3.33;;
6017;SDS011;3037;51.068;13.780;2023-04-15T09:07:59;3.07;;;2.87;;
6017;SDS011;3037;51.068;13.780;2023-04-15T09:10:26;3.67;;;3.23;;
6017;SDS011;3037;51.068;13.780;2023-04-15T09:12:52;3.20;;;3.10;;
6017;SDS011;3037;51.068;13.780;2023-04-15T09:15:17;2.83;;;2.53;;
6017;SDS011;3037;51.068;13.780;2023-04-15T09:17:43;3.57;;;3.37;;
6017;SDS011;3037;51.068;13.780;2023-04-15T09:20:10;3.43;;;3.10;;
6017;SDS011;3037;51.068;13.780;2023-04-15T09:22:38;3.67;;;3.57;;
6017;SDS011;3037;51.068;13.780;2023-04-15T09:27:47;3.43;;;3.23;;
6017;SDS011;3037;51.068;13.780;2023-04-15T09:30:13;3.13;;;3.03;;
6017;SDS011;3037;51.068;13.780;2023-04-15T09:32:47;3.70;;;3.40;;
6017;SDS011;3037;51.068;13.780;2023-04-15T09:35:23;3.70;;;3.50;;
6017;SDS011;3037;51.068;13.780;2023-04-15T09:37:50;3.27;;;3.13;;
6017;SDS011;3037;51.068;13.780;2023-04-15T09:42:57;2.90;;;2.80;;
6017;SDS011;3037;51.068;13.780;2023-04-15T09:45:23;3.30;;;3.13;;
6017;SDS011;3037;51.068;13.780;2023-04-15T09:47:48;3.27;;;3.07;;
6017;SDS011;3037;51.068;13.780;2023-04-15T09:50:17;38.87;;;15.33;;
6017;SDS011;3037;51.068;13.780;2023-04-15T09:52:44;4.80;;;3.33;;
6017;SDS011;3037;51.068;13.780;2023-04-15T09:55:11;3.40;;;3.10;;
6017;SDS011;3037;51.068;13.780;2023-04-15T09:57:38;3.40;;;3.20;;
6017;SDS011;3037;51.068;13.780;2023-04-15T10:00:08;3.47;;;3.17;;
6017;SDS011;3037;51.068;13.780;2023-04-15T10:02:35;3.57;;;3.37;;
6017;SDS011;3037;51.068;13.780;2023-04-15T10:05:02;3.47;;;3.27;;
6017;SDS011;3037;51.068;13.780;2023-04-15T10:07:27;3.23;;;2.60;;
6017;SDS011;3037;51.068;13.780;2023-04-15T10:09:53;3.10;;;3.00;;
6017;SDS011;3037;51.068;13.780;2023-04-15T10:12:20;3.57;;;3.27;;
6017;SDS011;3037;51.068;13.780;2023-04-15T10:14:55;2.90;;;2.80;;
6017;SDS011;3037;51.068;13.780;2023-04-15T10:17:23;3.43;;;3.20;;
6017;SDS011;3037;51.068;13.780;2023-04-15T10:19:53;3.23;;;3.03;;
6017;SDS011;3037;51.068;13.780;2023-04-15T10:22:19;3.10;;;3.00;;
6017;SDS011;3037;51.068;13.780;2023-04-15T10:24:47;4.13;;;3.83;;
6017;SDS011;3037;51.068;13.780;2023-04-15T10:27:13;2.87;;;2.77;;
6017;SDS011;3037;51.068;13.780;2023-04-15T10:29:41;3.90;;;3.60;;
6017;SDS011;3037;51.068;13.780;2023-04-15T10:32:07;3.70;;;3.50;;
6017;SDS011;3037;51.068;13.780;2023-04-15T10:34:34;3.87;;;3.50;;
6017;SDS011;3037;51.068;13.780;2023-04-15T10:37:01;3.73;;;3.53;;
6017;SDS011;3037;51.068;13.780;2023-04-15T10:39:37;3.70;;;3.50;;
6017;SDS011;3037;51.068;13.780;2023-04-15T10:42:32;4.80;;;4.50;;
6017;SDS011;3037;51.068;13.780;2023-04-15T10:44:57;4.20;;;4.00;;
6017;SDS011;3037;51.068;13.780;2023-04-15T10:47:23;3.93;;;3.73;;
6017;SDS011;3037;51.068;13.780;2023-04-15T10:49:50;3.80;;;3.60;;
6017;SDS011;3037;51.068;13.780;2023-04-15T10:52:22;4.30;;;4.00;;
6017;SDS011;3037;51.068;13.780;2023-04-15T10:54:49;4.53;;;4.23;;
6017;SDS011;3037;51.068;13.780;2023-04-15T10:57:36;3.00;;;2.90;;
6017;SDS011;3037;51.068;13.780;2023-04-15T11:00:12;4.67;;;3.47;;
6017;SDS011;3037;51.068;13.780;2023-04-15T11:02:40;3.53;;;3.33;;
6017;SDS011;3037;51.068;13.780;2023-04-15T11:05:10;2.90;;;2.70;;
6017;SDS011;3037;51.068;13.780;2023-04-15T11:07:37;3.30;;;3.10;;
6017;SDS011;3037;51.068;13.780;2023-04-15T11:10:49;2.17;;;1.97;;
6017;SDS011;3037;51.068;13.780;2023-04-15T11:12:51;3.40;;;2.33;;
6017;SDS011;3037;51.068;13.780;2023-04-15T11:15:33;2.10;;;2.00;;
6017;SDS011;3037;51.068;13.780;2023-04-15T11:18:14;2.27;;;2.17;;
6017;SDS011;3037;51.068;13.780;2023-04-15T11:20:44;1.73;;;1.73;;
6017;SDS011;3037;51.068;13.780;2023-04-15T11:23:11;2.33;;;2.23;;
6017;SDS011;3037;51.068;13.780;2023-04-15T11:25:41;2.57;;;2.40;;
6017;SDS011;3037;51.068;13.780;2023-04-15T11:28:07;2.10;;;2.00;;
6017;SDS011;3037;51.068;13.780;2023-04-15T11:30:33;2.07;;;1.97;;
6017;SDS011;3037;51.068;13.780;2023-04-15T11:33:01;3.03;;;2.43;;
6017;SDS011;3037;51.068;13.780;2023-04-15T11:35:29;1.80;;;1.70;;
6017;SDS011;3037;51.068;13.780;2023-04-15T11:37:55;2.60;;;2.40;;
6017;SDS011;3037;51.068;13.780;2023-04-15T11:40:22;2.13;;;2.00;;
6017;SDS011;3037;51.068;13.780;2023-04-15T11:45:30;2.67;;;2.57;;
6017;SDS011;3037;51.068;13.780;2023-04-15T11:48:03;2.43;;;2.20;;
6017;SDS011;3037;51.068;13.780;2023-04-15T11:50:30;2.63;;;2.53;;
6017;SDS011;3037;51.068;13.780;2023-04-15T11:52:56;2.00;;;1.90;;
6017;SDS011;3037;51.068;13.780;2023-04-15T11:55:23;1.70;;;1.60;;
6017;SDS011;3037;51.068;13.780;2023-04-15T11:57:49;1.90;;;1.80;;
6017;SDS011;3037;51.068;13.780;2023-04-15T12:00:29;2.17;;;2.07;;
6017;SDS011;3037;51.068;13.780;2023-04-15T12:03:10;1.77;;;1.70;;
6017;SDS011;3037;51.068;13.780;2023-04-15T12:05:36;3.33;;;2.20;;
6017;SDS011;3037;51.068;13.780;2023-04-15T12:11:16;2.00;;;1.20;;
6017;SDS011;3037;51.068;13.780;2023-04-15T12:13:44;1.90;;;1.80;;
6017;SDS011;3037;51.068;13.780;2023-04-15T12:16:11;2.83;;;1.73;;
6017;SDS011;3037;51.068;13.780;2023-04-15T12:18:37;1.90;;;1.80;;
6017;SDS011;3037;51.068;13.780;2023-04-15T12:21:09;2.57;;;2.37;;
6017;SDS011;3037;51.068;13.780;2023-04-15T12:23:48;1.63;;;1.40;;
6017;SDS011;3037;51.068;13.780;2023-04-15T12:26:17;1.97;;;1.87;;
6017;SDS011;3037;51.068;13.780;2023-04-15T12:28:49;1.23;;;1.13;;
6017;SDS011;3037;51.068;13.780;2023-04-15T12:31:24;2.00;;;1.40;;
6017;SDS011;3037;51.068;13.780;2023-04-15T12:33:50;1.60;;;1.60;;
6017;SDS011;3037;51.068;13.780;2023-04-15T12:36:15;1.23;;;1.23;;
6017;SDS011;3037;51.068;13.780;2023-04-15T12:38:41;1.90;;;1.80;;
6017;SDS011;3037;51.068;13.780;2023-04-15T12:41:06;2.47;;;2.27;;
6017;SDS011;3037;51.068;13.780;2023-04-15T12:43:32;1.40;;;1.30;;
6017;SDS011;3037;51.068;13.780;2023-04-15T12:45:57;6.13;;;2.40;;
6017;SDS011;3037;51.068;13.780;2023-04-15T12:48:23;1.70;;;1.57;;
6017;SDS011;3037;51.068;13.780;2023-04-15T12:50:48;1.60;;;1.50;;
6017;SDS011;3037;51.068;13.780;2023-04-15T12:53:14;1.60;;;1.60;;
6017;SDS011;3037;51.068;13.780;2023-04-15T12:55:39;1.80;;;1.70;;
6017;SDS011;3037;51.068;13.780;2023-04-15T12:58:05;1.87;;;1.77;;
6017;SDS011;3037;51.068;13.780;2023-04-15T13:00:32;3.70;;;1.90;;
6017;SDS011;3037;51.068;13.780;2023-04-15T13:02:58;2.27;;;2.17;;
6017;SDS011;3037;51.068;13.780;2023-04-15T13:05:23;2.07;;;1.97;;
6017;SDS011;3037;51.068;13.780;2023-04-15T13:07:49;1.90;;;1.83;;
6017;SDS011;3037;51.068;13.780;2023-04-15T13:10:15;1.67;;;1.57;;
6017;SDS011;3037;51.068;13.780;2023-04-15T13:12:40;1.53;;;1.43;;
6017;SDS011;3037;51.068;13.780;2023-04-15T13:15:06;2.27;;;1.50;;
6017;SDS011;3037;51.068;13.780;2023-04-15T13:17:35;1.90;;;1.80;;
6017;SDS011;3037;51.068;13.780;2023-04-15T13:20:00;1.80;;;1.70;;
6017;SDS011;3037;51.068;13.780;2023-04-15T13:22:26;2.17;;;2.07;;
6017;SDS011;3037;51.068;13.780;2023-04-15T13:24:51;3.97;;;3.17;;
6017;SDS011;3037;51.068;13.780;2023-04-15T13:27:17;8.77;;;6.37;;
6017;SDS011;3037;51.068;13.780;2023-04-15T13:29:42;13.33;;;8.03;;
6017;SDS011;3037;51.068;13.780;2023-04-15T13:32:08;3.60;;;3.07;;
6017;SDS011;3037;51.068;13.780;2023-04-15T13:34:33;4.53;;;3.90;;
6017;SDS011;3037;51.068;13.780;2023-04-15T13:37:04;3.17;;;2.80;;
6017;SDS011;3037;51.068;13.780;2023-04-15T13:39:31;2.63;;;2.47;;
6017;SDS011;3037;51.068;13.780;2023-04-15T13:41:56;3.63;;;3.33;;
6017;SDS011;3037;51.068;13.780;2023-04-15T13:44:22;2.10;;;2.00;;
6017;SDS011;3037;51.068;13.780;2023-04-15T13:46:47;3.30;;;3.03;;
6017;SDS011;3037;51.068;13.780;2023-04-15T13:49:13;1.73;;;1.33;;
6017;SDS011;3037;51.068;13.780;2023-04-15T13:51:38;7.20;;;4.77;;
6017;SDS011;3037;51.068;13.780;2023-04-15T13:54:04;2.10;;;2.00;;
6017;SDS011;3037;51.068;13.780;2023-04-15T13:56:30;3.10;;;2.80;;
6017;SDS011;3037;51.068;13.780;2023-04-15T13:58:55;1.80;;;1.80;;
6017;SDS011;3037;51.068;13.780;2023-04-15T14:01:23;2.90;;;2.57;;
6017;SDS011;3037;51.068;13.780;2023-04-15T14:03:49;1.70;;;1.60;;
6017;SDS011;3037;51.068;13.780;2023-04-15T14:06:15;1.73;;;1.63;;
6017;SDS011;3037;51.068;13.780;2023-04-15T14:08:40;4.30;;;3.13;;
6017;SDS011;3037;51.068;13.780;2023-04-15T14:11:06;1.90;;;1.80;;
6017;SDS011;3037;51.068;13.780;2023-04-15T14:13:31;2.03;;;1.93;;
6017;SDS011;3037;51.068;13.780;2023-04-15T14:15:57;2.07;;;1.87;;
6017;SDS011;3037;51.068;13.780;2023-04-15T14:18:23;2.20;;;2.00;;
6017;SDS011;3037;51.068;13.780;2023-04-15T14:20:48;1.47;;;1.47;;
6017;SDS011;3037;51.068;13.780;2023-04-15T14:23:14;1.40;;;1.40;;
6017;SDS011;3037;51.068;13.780;2023-04-15T14:25:39;2.60;;;2.50;;
6017;SDS011;3037;51.068;13.780;2023-04-15T14:28:05;2.50;;;2.40;;
6017;SDS011;3037;51.068;13.780;2023-04-15T14:30:30;2.00;;;1.90;;
6017;SDS011;3037;51.068;13.780;2023-04-15T14:32:56;1.60;;;1.60;;
6017;SDS011;3037;51.068;13.780;2023-04-15T14:35:21;1.73;;;1.73;;
6017;SDS011;3037;51.068;13.780;2023-04-15T14:37:50;1.50;;;1.50;;
6017;SDS011;3037;51.068;13.780;2023-04-15T14:40:16;1.87;;;1.77;;
6017;SDS011;3037;51.068;13.780;2023-04-15T14:42:42;1.37;;;1.37;;
6017;SDS011;3037;51.068;13.780;2023-04-15T14:45:08;1.50;;;1.50;;
6017;SDS011;3037;51.068;13.780;2023-04-15T14:47:34;7.83;;;1.77;;
6017;SDS011;3037;51.068;13.780;2023-04-15T14:50:00;2.33;;;2.13;;
6017;SDS011;3037;51.068;13.780;2023-04-15T14:52:26;1.67;;;1.57;;
6017;SDS011;3037;51.068;13.780;2023-04-15T14:54:51;2.27;;;2.17;;
6017;SDS011;3037;51.068;13.780;2023-04-15T14:57:17;2.47;;;2.37;;
6017;SDS011;3037;51.068;13.780;2023-04-15T14:59:42;1.90;;;1.80;;
6017;SDS011;3037;51.068;13.780;2023-04-15T15:02:08;3.13;;;1.57;;
6017;SDS011;3037;51.068;13.780;2023-04-15T15:04:33;2.03;;;1.93;;
6017;SDS011;3037;51.068;13.780;2023-04-15T15:06:59;2.23;;;2.13;;